x

Buoy E01 - Central Maine Shelf (44032) Wave Buoy

12:04am - Thu 1st Sep 2016 All times are EDT. -4 hours from GMT.

  • Sig Wave height 3.3ft
  • Peak Period 11s
  • Wind
    9mph
  • Sea Temp 62°f
  • Air Temp 65°f
  • Sea Pressure 1008.9mb
  • Buoy E01 - Central Maine Shelf
  • Buoy E01 - Central Maine Shelf

More Historic Weather Station data

Upgrade to MSW Pro to gain access to the past 30 days of data for over 8000 Wavebouys and Weather Stations around the globe.

Join Pro

Comparision Forecast

View Surf forecast
   
Thu 09/01 12:04am 3.5ft 11s 9
mph
1008.9mb 62f 65f
Wed 08/31 11:04pm 3.5ft 11s 9
mph
1009.2mb 62f 65f
10:04pm 3.5ft 11s 13 16 mph 1009.1mb 62f 66f
9:04pm 3ft 11s 7 9 mph 1009.2mb 62f 65f
6:04pm 3ft 11s 4 7 mph 1010mb 62f 65f
5:04pm 3.5ft 11s 9 11 mph 1010.1mb 62f 65f
4:04pm 3.5ft 11s 9
mph
1010.4mb 62f 65f
3:04pm 4ft 11s 2 4 mph 1010.8mb 62f 64f
2:04pm 3.5ft 11s 7 9 mph 1011.4mb 62f 64f
1:04pm 3.5ft 11s 9
mph
1011.7mb 62f 64f
12:04pm 3.5ft 11s 7 9 mph 1011.8mb 62f 64f
11:04am 2.5ft 5s 9 11 mph 1012.8mb 62f 64f
10:04am 3.5ft 11s 9
mph
1013mb 62f 64f
9:04am 3.5ft 11s 7 9 mph 1013.1mb 62f 63f
8:04am 3.5ft 11s 11
mph
1013.3mb 62f 63f
7:04am 3.5ft 11s 9
mph
1013.7mb 61f 63f
6:04am 3.5ft 8s 7 9 mph 1013.9mb 62f 63f
5:04am 4ft 11s 4
mph
1014.1mb 62f 63f
4:04am 3.5ft 11s 7
mph
1014.6mb 62f 63f
3:04am 3.5ft 11s 4 7 mph 1015mb 62f 63f
2:04am 3.5ft 11s 9 11 mph 1015mb 62f 64f
1:04am 3.5ft 11s 11
mph
1015.4mb 62f 64f
12:04am 2.5ft 11s 7 9 mph 1015.9mb 62f 64f
Tue 08/30 11:04pm 3ft 11s 9
mph
1016.3mb 62f 64f
10:04pm 2.5ft 11s 9 11 mph 1016.5mb 62f 64f
9:04pm 4ft 11s 9 11 mph 1016.6mb 62f 65f
8:04pm  -   -  11
mph
1016.5mb 62f 64f
7:04pm 1.3ft 3s 11
mph
1016.5mb 62f 64f
6:04pm 1.6ft 3s 13 16 mph 1016.7mb 62f 65f
5:04pm  -   -  13
mph
1016.9mb 62f 65f
4:04pm 3.5ft 11s 11 13 mph 1017.2mb 62f 65f
3:04pm 4ft 11s 11 13 mph 1018.1mb 62f 64f
2:04pm 4ft 11s 9 11 mph 1018.4mb 63f 64f
1:04pm 3.5ft 11s 9 11 mph 1019mb 62f 64f
12:04pm 2.5ft 11s 7 9 mph 1019.3mb 62f 63f
11:04am 3.5ft 11s 7 9 mph 1019.8mb 62f 63f
10:04am 3ft 11s 7 9 mph 1020mb 61f 62f
9:04am 3.5ft 11s 7 9 mph 1020.1mb 61f 63f
8:04am 3.5ft 11s 9
mph
1019.9mb 61f 63f
7:04am  -   -  9 11 mph 1020mb 61f 64f
6:04am  -   -  7 9 mph 1019.8mb 62f 62f
5:04am 3ft 11s 7
mph
1019.6mb 62f 62f
4:04am 3.5ft 11s 7 9 mph 1019.5mb 62f 62f
3:04am  -   -  9 11 mph 1019.4mb 62f 62f
2:04am 2.5ft 11s 4 7 mph 1019.3mb 62f 62f
1:04am 3.5ft 11s 7 9 mph 1019.6mb 62f 63f
12:04am 2.5ft 11s 7 9 mph 1019.3mb 62f 63f
Mon 08/29 11:04pm 1.3ft 4s 9 11 mph 1019.3mb 62f 64f
10:04pm 1.3ft 4s 9 11 mph 1018.9mb 62f 65f
9:04pm 2ft 3s 11 13 mph 1018.5mb 62f 66f
7:04pm 2.5ft 6s 13 16 mph 1017.6mb 62f 67f
6:04pm 2.5ft 4s 9 11 mph 1016.5mb 62f 67f
5:04pm 3.5ft 5s 13 16 mph 1015.8mb 62f 68f
4:04pm 3.5ft 4s 20 25 mph 1015.5mb 62f 70f
3:04pm 3.5ft 4s 16 20 mph 1015.6mb 61f 70f
2:04pm 3.5ft 5s 16 20 mph 1015.1mb 62f 69f
1:04pm 3.5ft 5s 18 20 mph 1014.6mb 64f 71f
12:04pm 3.5ft 5s 11
mph
1014mb 64f 67f
11:04am 4.5ft 6s 11
mph
1014.1mb 63f 66f
10:04am 4ft 6s 11 13 mph 1014.2mb 63f 65f
9:04am 5ft 6s 13 16 mph 1014.6mb 62f 65f
8:04am 4.5ft 5s 13 16 mph 1014.9mb 62f 65f
7:04am 4.5ft 6s 16 18 mph 1015.2mb 62f 65f
6:04am 5ft 6s 16 18 mph 1015.4mb 62f 65f
5:04am 4.5ft 5s 18 20 mph 1015.8mb 62f 65f
4:04am 5ft 5s 20 25 mph 1016.5mb 62f 65f
3:04am 3.5ft 5s 20 22 mph 1017.2mb 62f 65f
2:04am 3.5ft 5s 20 22 mph 1017.9mb 62f 66f
1:04am 3ft 5s 16 20 mph 1018.5mb 63f 65f
12:04am 2.5ft 4s 16 18 mph 1019mb 63f 65f
Sun 08/28 11:04pm 2ft 4s 13 16 mph 1019.8mb 63f 65f
10:04pm 2ft 3s 9 11 mph 1020.4mb 63f 65f
9:04pm 1.3ft 3s 9 11 mph 1020.9mb 63f 65f
8:04pm 1.6ft 6s 11 13 mph 1020.9mb 63f 65f
7:04pm 1.6ft 8s 13 16 mph 1020.9mb 63f 65f
6:04pm 1.6ft 8s 11
mph
1021.5mb 63f 65f
5:04pm 1.3ft 8s 9
mph
1022.5mb 63f 65f
4:04pm 1.3ft 8s 9 11 mph 1023.1mb 63f 65f
3:04pm 1.3ft 8s 9 11 mph 1023.7mb 63f 65f
2:04pm 1.3ft 8s 7 9 mph 1024.3mb 64f 65f
1:04pm 1.3ft 8s 9
mph
1024.7mb 63f 64f
12:04pm 1.3ft 11s 9
mph
1025.3mb 63f 64f
11:04am 1.3ft 8s 9
mph
1025.8mb 63f 64f
10:04am 1.3ft 11s 7 9 mph 1025.7mb 62f 64f
9:04am 1.3ft 11s 7 9 mph 1025.5mb 62f 64f
8:04am 1.6ft 11s 4
mph
1025.5mb 62f 63f
7:04am 1.6ft 8s 7
mph
1025.8mb 62f 63f
6:04am 1.3ft 8s 4 7 mph 1025.1mb 62f 62f